Погода Боунана неделю

Корого, Кот-д’Ивуар

22 - 28 февраля
  • 22февраля
    Сегодня
    +17°
    +32°
    Небольшая облачность
    ВремяПогодаТемператураВлажностьДавлениеВетер, м/сВероятность осадков
    00:00Ясно и безоблачно+21°C45 %719 мм1.1 м/с2 %
    03:00Практически безоблачно+17°C58 %717 мм1.9 м/с2 %
    06:00Ясно и безоблачно+17°C46 %718 мм2.0 м/с2 %
    09:00Ясно и безоблачно+22°C43 %721 мм0.3 м/с2 %
    12:00Небольшая облачность+29°C20 %721 мм1.9 м/с2 %
    15:00Небольшая облачность+32°C18 %719 мм2.4 м/с2 %
    18:00Ясно и безоблачно+27°C49 %718 мм1.9 м/с2 %
    21:00Небольшая облачность+21°C49 %719 мм1.2 м/с2 %
  • 23февраля
    Пятница
    +16°
    +33°
    Ясно и безоблачно
    ВремяПогодаТемператураВлажностьДавлениеВетер, м/сВероятность осадков
    00:00Небольшая облачность+19°C47 %719 мм2.0 м/с2 %
    03:00Ясно и безоблачно+20°C33 %719 мм3.0 м/с2 %
    06:00Ясно и безоблачно+18°C33 %719 мм2.4 м/с2 %
    09:00Практически безоблачно+22°C35 %721 мм1.3 м/с2 %
    12:00Небольшая облачность+29°C17 %721 мм2.4 м/с2 %
    15:00Ясно и безоблачно+32°C18 %719 мм1.9 м/с2 %
    18:00Ясно и безоблачно+28°C37 %719 мм1.8 м/с2 %
    21:00Ясно и безоблачно+24°C35 %720 мм1.8 м/с2 %
  • 24февраля
    Суббота
    +18°
    +34°
    Небольшая облачность
    ВремяПогодаТемператураВлажностьДавлениеВетер, м/сВероятность осадков
    00:00Ясно и безоблачно+19°C40 %720 мм2.1 м/с2 %
    03:00Ясно и безоблачно+19°C35 %719 мм2.7 м/с2 %
    06:00Практически безоблачно+18°C32 %720 мм2.2 м/с2 %
    09:00Облачно с прояснениями+23°C34 %721 мм1.5 м/с2 %
    12:00Ясно и безоблачно+30°C17 %721 мм2.5 м/с2 %
    15:00Небольшая облачность+33°C18 %719 мм1.5 м/с2 %
    18:00Ясно и безоблачно+28°C44 %719 мм1.9 м/с2 %
    21:00Ясно и безоблачно+22°C39 %719 мм2.5 м/с2 %
  • 25февраля
    Воскресенье
    +18°
    +35°
    Ясно и безоблачно
    ВремяПогодаТемператураВлажностьДавлениеВетер, м/сВероятность осадков
    00:00Ясно и безоблачно+23°C36 %720 мм2.0 м/с2 %
    03:00Ясно и безоблачно+21°C38 %719 мм2.8 м/с2 %
    06:00Ясно и безоблачно+18°C41 %719 мм2.4 м/с2 %
    09:00Ясно и безоблачно+23°C38 %722 мм1.0 м/с2 %
    12:00Ясно и безоблачно+31°C21 %722 мм1.6 м/с2 %
    15:00Ясно и безоблачно+34°C17 %719 мм2.3 м/с2 %
    18:00Небольшая облачность+29°C34 %719 мм2.1 м/с2 %
    21:00Ясно и безоблачно+24°C35 %720 мм2.3 м/с2 %
Мы используем cookies
Соглашаюсь